Terminal Aerodrome Forecast
Issued by NWS

Current Version | Previous Version | Text Only | Print | Product List | Glossary On
Versions: 1 2 3 4 5 6 7 8 9 10 11 12 13 14 15 16 17 18 19 20 21 22 23 24 25 26 27 28 29 30 31 32 33 34 35 36 37 38
000
FTUS45 KCYS 222321
TAFLAR
TAF
KLAR 222321Z 2300/2324 05007KT P6SM VCSH SCT020 OVC040
     FM230200 04008KT 3SM -SN SCT010 OVC030
     FM230500 15016G24KT 3SM -SN OVC015
     FM231600 05012KT 2SM -SN BR OVC010=

USA.gov is the U.S. government's official web portal to all federal, state and local government web resources and services.